createdAt,value
2023-05-13T00:14:10.483Z,9.48
2023-05-13T00:29:12.107Z,9.70
2023-05-13T00:44:14.559Z,9.50
2023-05-13T00:59:16.332Z,7.47
2023-05-13T01:14:33.496Z,10.97
2023-05-13T01:29:35.692Z,9.19
2023-05-13T01:44:37.499Z,9.79
2023-05-13T01:59:39.190Z,11.09
2023-05-13T02:14:40.942Z,9.33
2023-05-13T02:29:42.785Z,9.68
2023-05-13T02:44:44.455Z,10.07
2023-05-13T02:59:46.198Z,9.90
2023-05-13T03:14:47.884Z,9.16
2023-05-13T03:29:49.539Z,9.91
2023-05-13T03:44:51.305Z,9.88
2023-05-13T03:59:52.958Z,8.49
2023-05-13T04:14:54.593Z,9.89
2023-05-13T04:29:56.223Z,9.57
2023-05-13T04:44:57.988Z,9.36
2023-05-13T04:59:59.606Z,10.39
2023-05-13T05:15:01.241Z,10.04
2023-05-13T05:30:03.682Z,10.64
2023-05-13T05:45:05.761Z,11.69
2023-05-13T06:00:08.061Z,11.08
2023-05-13T06:15:13.079Z,11.52
2023-05-13T06:30:14.836Z,11.32
2023-05-13T06:45:16.673Z,10.91
2023-05-13T07:00:18.943Z,12.38
2023-05-13T07:15:21.201Z,11.95
2023-05-13T07:30:23.240Z,11.74
2023-05-13T07:45:25.181Z,12.87
2023-05-13T08:00:26.862Z,12.01
2023-05-13T08:15:28.617Z,13.93
2023-05-13T08:30:30.281Z,13.89
2023-05-13T08:45:33.400Z,14.83
2023-05-13T09:00:35.359Z,15.31
2023-05-13T09:15:37.056Z,15.84
2023-05-13T09:30:43.790Z,17.04
2023-05-13T09:45:47.762Z,15.06
2023-05-13T10:00:49.505Z,15.66
2023-05-13T10:15:53.346Z,16.45
2023-05-13T10:30:55.111Z,16.43
2023-05-13T10:45:57.888Z,16.12
2023-05-13T11:01:31.141Z,17.63
2023-05-13T11:16:34.253Z,16.33
2023-05-13T11:31:49.028Z,17.95
2023-05-13T11:47:08.396Z,18.34
2023-05-13T12:02:10.632Z,17.93
2023-05-13T12:17:15.368Z,18.86
2023-05-13T12:32:17.205Z,18.10
2023-05-13T12:47:20.202Z,18.58
2023-05-13T13:02:21.863Z,17.92
2023-05-13T13:17:23.621Z,16.93
2023-05-13T13:32:26.096Z,16.27
2023-05-13T13:47:27.878Z,18.80
2023-05-13T14:02:29.793Z,18.04
2023-05-13T14:17:32.523Z,17.94
2023-05-13T14:32:34.611Z,17.84
2023-05-13T14:47:36.389Z,15.29
2023-05-13T15:02:38.328Z,17.80
2023-05-13T15:17:40.180Z,17.68
2023-05-13T15:32:42.119Z,16.86
2023-05-13T15:47:43.937Z,17.55
2023-05-13T16:02:45.788Z,17.37
2023-05-13T16:17:47.727Z,17.24
2023-05-13T16:32:54.502Z,18.04
2023-05-13T16:47:56.674Z,17.10
2023-05-13T17:02:58.443Z,17.71
2023-05-13T17:18:00.303Z,15.68
2023-05-13T17:33:02.085Z,16.50
2023-05-13T17:48:04.308Z,16.78
2023-05-13T18:03:06.064Z,16.15
2023-05-13T18:18:07.826Z,15.68
2023-05-13T18:33:09.440Z,16.51
2023-05-13T18:48:10.950Z,16.18
2023-05-13T19:03:12.857Z,15.14
2023-05-13T19:18:14.957Z,15.82
2023-05-13T19:33:17.710Z,15.25
2023-05-13T19:48:19.298Z,14.75
2023-05-13T20:03:21.252Z,15.91
2023-05-13T20:18:23.082Z,15.27
2023-05-13T20:33:24.674Z,15.76
2023-05-13T20:48:36.615Z,14.18
2023-05-13T21:03:38.353Z,13.93
2023-05-13T21:18:40.152Z,14.81
2023-05-13T21:33:41.881Z,14.47
2023-05-13T21:48:43.580Z,14.71
2023-05-13T22:03:45.425Z,14.20
2023-05-13T22:18:47.191Z,13.66
2023-05-13T22:33:48.917Z,13.71
2023-05-13T22:48:50.634Z,12.01
2023-05-13T23:03:52.330Z,15.14
2023-05-13T23:18:55.456Z,15.24
2023-05-13T23:33:57.100Z,13.32
2023-05-13T23:48:58.706Z,12.83
